Time;durP1;ratioP1;P1;durP2;ratioP2;P2;SDS_P1;SDS_P2;PMS_P1;PMS_P2;Temp;Humidity;BMP_temperature;BMP_pressure;BME280_temperature;BME280_humidity;BME280_pressure;Samples;Min_cycle;Max_cycle;Signal;HPM_P1;HPM_P2
2022/10/21 00:00:06;;;;;;;20.80;16.67;;;14.50;99.90;;;;;;5010238;28;20193;-57
2022/10/21 00:02:32;;;;;;;21.42;17.17;;;14.60;99.90;;;;;;5010727;28;20191;-57
2022/10/21 00:04:58;;;;;;;25.60;16.53;;;14.50;99.90;;;;;;5009764;28;20275;-57
2022/10/21 00:07:23;;;;;;;20.70;16.33;;;14.60;99.90;;;;;;5007415;28;20290;-57
2022/10/21 00:09:49;;;;;;;23.07;17.17;;;14.60;99.90;;;;;;5011149;28;20214;-56
2022/10/21 00:12:14;;;;;;;20.90;16.50;;;14.50;99.90;;;;;;5006803;28;20199;-57
2022/10/21 00:14:40;;;;;;;21.50;16.90;;;14.40;99.90;;;;;;5017975;28;20206;-56
2022/10/21 00:17:06;;;;;;;19.13;17.07;;;14.50;99.90;;;;;;5013123;28;20309;-56
2022/10/21 00:19:32;;;;;;;24.00;17.27;;;14.80;99.90;;;;;;5012127;28;20194;-56
2022/10/21 00:21:58;;;;;;;20.00;16.40;;;14.50;99.90;;;;;;5015577;28;20186;-56
2022/10/21 00:24:23;;;;;;;21.73;16.07;;;14.50;99.90;;;;;;5017698;28;20562;-57
2022/10/21 00:26:49;;;;;;;19.67;16.00;;;14.70;99.90;;;;;;5004679;28;20911;-56
2022/10/21 00:29:15;;;;;;;19.83;16.08;;;14.40;99.90;;;;;;5011541;28;20190;-56
2022/10/21 00:31:41;;;;;;;21.33;15.67;;;14.70;99.90;;;;;;5024549;28;20317;-56
2022/10/21 00:34:06;;;;;;;20.60;13.80;;;14.50;99.90;;;;;;5013093;28;20244;-55
2022/10/21 00:36:32;;;;;;;16.77;14.10;;;14.60;99.90;;;;;;5015032;28;20265;-56
2022/10/21 00:38:58;;;;;;;17.20;14.20;;;14.50;99.90;;;;;;5015183;28;20183;-56
2022/10/21 00:41:24;;;;;;;19.02;15.30;;;14.80;99.90;;;;;;5011401;28;20206;-56
2022/10/21 00:44:02;;;;;;;16.07;14.40;;;14.60;99.90;;;;;;4987641;28;20211;-56
2022/10/21 00:46:39;;;;;;;20.33;15.75;;;14.70;99.90;;;;;;5011003;28;20191;-56
2022/10/21 00:49:27;;;;;;;16.60;13.70;;;14.50;99.90;;;;;;5010124;28;20662;-56
2022/10/21 00:51:58;;;;;;;19.58;14.02;;;14.80;99.90;;;;;;5001645;28;20207;-55
2022/10/21 00:54:27;;;;;;;17.90;14.40;;;14.80;99.90;;;;;;5009759;28;20529;-56
2022/10/21 00:56:55;;;;;;;20.08;15.07;;;14.70;99.90;;;;;;5008747;28;20210;-56
2022/10/21 00:59:25;;;;;;;19.70;14.60;;;14.40;99.90;;;;;;5007564;28;20231;-57
2022/10/21 01:01:52;;;;;;;15.88;13.02;;;14.60;99.90;;;;;;5010156;28;20202;-56
2022/10/21 01:04:18;;;;;;;20.23;14.63;;;14.40;99.90;;;;;;5010406;28;20217;-56
2022/10/21 01:06:45;;;;;;;15.57;13.53;;;14.60;99.90;;;;;;5007259;28;20190;-56
2022/10/21 01:09:12;;;;;;;16.70;14.90;;;14.50;99.90;;;;;;5012228;28;20217;-56
2022/10/21 01:11:43;;;;;;;19.30;14.30;;;14.40;99.90;;;;;;5008499;28;20213;-56
2022/10/21 01:14:33;;;;;;;24.27;15.30;;;14.60;99.90;;;;;;5011523;28;20286;-56
2022/10/21 01:17:33;;;;;;;17.17;14.00;;;14.40;99.90;;;;;;5013636;28;20558;-56
2022/10/21 01:20:19;;;;;;;21.77;17.05;;;14.60;99.90;;;;;;5018857;28;20175;-56
2022/10/21 01:23:32;;;;;;;15.93;12.88;;;14.30;99.90;;;;;;5016762;28;20207;-56
2022/10/21 01:26:03;;;;;;;17.55;14.27;;;14.50;99.90;;;;;;5016990;28;20252;-56
2022/10/21 01:28:53;;;;;;;19.00;14.52;;;14.50;99.90;;;;;;5015237;28;20195;-57
2022/10/21 01:31:42;;;;;;;16.02;13.07;;;14.30;99.90;;;;;;5014169;28;20221;-56
2022/10/21 01:34:11;;;;;;;14.98;13.23;;;14.50;99.90;;;;;;5010318;28;20195;-56
2022/10/21 01:36:54;;;;;;;13.02;11.48;;;14.20;99.90;;;;;;5007675;28;20270;-56
2022/10/21 01:39:37;;;;;;;17.75;13.93;;;14.40;99.90;;;;;;5012838;28;20209;-57
2022/10/21 01:42:15;;;;;;;16.20;12.23;;;14.60;99.90;;;;;;5005552;28;20260;-56
2022/10/21 01:44:57;;;;;;;15.90;12.35;;;14.40;99.90;;;;;;5010455;28;20206;-56
2022/10/21 01:47:33;;;;;;;15.15;13.65;;;14.30;99.90;;;;;;5016246;28;20194;-56
2022/10/21 01:50:24;;;;;;;17.20;12.80;;;14.10;99.90;;;;;;5011314;28;20206;-56
2022/10/21 01:52:57;;;;;;;18.10;13.07;;;14.40;99.90;;;;;;5011272;28;20194;-55
2022/10/21 01:55:26;;;;;;;15.02;12.80;;;14.30;99.90;;;;;;4995378;28;20265;-56
2022/10/21 01:57:59;;;;;;;21.08;13.30;;;14.40;99.90;;;;;;5006175;28;20199;-57
2022/10/21 02:00:25;;;;;;;17.48;12.73;;;14.50;99.90;;;;;;5012813;28;20190;-56
2022/10/21 02:02:51;;;;;;;16.53;12.67;;;14.20;99.90;;;;;;5014371;28;20195;-56
2022/10/21 02:05:37;;;;;;;13.63;12.20;;;14.30;99.90;;;;;;5016917;28;20453;-56
2022/10/21 02:08:03;;;;;;;14.60;12.23;;;14.20;99.90;;;;;;5004925;28;20445;-57
2022/10/21 02:10:36;;;;;;;13.93;12.35;;;14.20;99.90;;;;;;5013189;28;20217;-57
2022/10/21 02:13:04;;;;;;;16.45;12.10;;;14.60;99.90;;;;;;5010117;28;20659;-56
2022/10/21 02:15:33;;;;;;;14.45;11.00;;;14.70;99.90;;;;;;5012116;28;20943;-59
2022/10/21 02:18:05;;;;;;;13.40;12.00;;;14.70;99.90;;;;;;5013393;28;20214;-56
2022/10/21 02:20:36;;;;;;;12.95;11.48;;;14.60;99.90;;;;;;5011825;28;20206;-56
2022/10/21 02:23:06;;;;;;;12.65;11.35;;;14.50;99.90;;;;;;5008780;28;20182;-56
2022/10/21 02:25:37;;;;;;;19.13;10.50;;;14.70;99.90;;;;;;5012634;28;20199;-56
2022/10/21 02:28:04;;;;;;;16.50;11.23;;;14.60;99.90;;;;;;5008222;28;20190;-56
2022/10/21 02:30:41;;;;;;;11.48;10.15;;;14.70;99.90;;;;;;5007673;28;20714;-56
2022/10/21 02:33:11;;;;;;;12.77;10.70;;;14.60;99.90;;;;;;5009554;28;20182;-56
2022/10/21 02:35:59;;;;;;;12.85;11.65;;;14.60;99.90;;;;;;5011234;28;20182;-56
2022/10/21 02:39:00;;;;;;;13.02;10.90;;;14.70;99.90;;;;;;5008724;28;20201;-56
2022/10/21 02:41:30;;;;;;;12.88;9.98;;;14.60;99.90;;;;;;4969792;28;20592;-56
2022/10/21 02:43:59;;;;;;;14.35;12.85;;;15.00;99.90;;;;;;5009686;28;20202;-56
2022/10/21 02:46:25;;;;;;;13.77;10.48;;;14.60;99.90;;;;;;4995714;28;20204;-56
2022/10/21 02:48:52;;;;;;;10.60;9.50;;;14.70;99.90;;;;;;5010731;28;20190;-56
2022/10/21 02:51:17;;;;;;;13.25;11.25;;;14.80;99.90;;;;;;5016520;28;20213;-56
2022/10/21 02:53:43;;;;;;;12.67;9.97;;;14.80;99.90;;;;;;5009204;28;20214;-56
2022/10/21 02:56:10;;;;;;;12.57;10.63;;;14.80;99.90;;;;;;5008726;28;20189;-56
2022/10/21 02:58:35;;;;;;;14.15;10.25;;;14.80;99.90;;;;;;5005100;28;20969;-57
2022/10/21 03:01:01;;;;;;;11.77;10.60;;;14.90;99.90;;;;;;5011024;28;20277;-56
2022/10/21 03:03:28;;;;;;;11.80;10.03;;;15.00;99.90;;;;;;5011458;28;20256;-56
2022/10/21 03:05:55;;;;;;;12.48;10.13;;;15.10;99.90;;;;;;5009106;28;20549;-55
2022/10/21 03:08:21;;;;;;;15.52;10.85;;;14.90;99.90;;;;;;5014028;28;20183;-56
2022/10/21 03:10:51;;;;;;;12.60;10.77;;;14.90;99.90;;;;;;5009270;28;20209;-56
2022/10/21 03:13:17;;;;;;;11.35;9.73;;;14.70;99.90;;;;;;5006896;28;20183;-56
2022/10/21 03:15:43;;;;;;;13.70;10.20;;;15.10;99.90;;;;;;5019290;28;20201;-56
2022/10/21 03:18:08;;;;;;;15.70;11.10;;;14.90;99.90;;;;;;5015019;28;20211;-56
2022/10/21 03:20:34;;;;;;;14.30;11.07;;;14.90;99.90;;;;;;5010557;28;20792;-55
2022/10/21 03:23:00;;;;;;;13.27;10.57;;;14.60;99.90;;;;;;5021260;28;20179;-56
2022/10/21 03:25:25;;;;;;;12.53;10.73;;;14.90;99.90;;;;;;5017602;28;20210;-56
2022/10/21 03:27:51;;;;;;;13.27;11.13;;;15.00;99.90;;;;;;5010059;28;20371;-56
2022/10/21 03:30:17;;;;;;;15.13;11.23;;;14.80;99.90;;;;;;5012323;28;20203;-56
2022/10/21 03:32:42;;;;;;;11.73;10.53;;;15.20;99.90;;;;;;5020740;28;20239;-55
2022/10/21 03:35:08;;;;;;;12.87;10.27;;;15.00;99.90;;;;;;4993270;28;20230;-56
2022/10/21 03:37:34;;;;;;;13.33;10.63;;;15.10;99.90;;;;;;5006668;28;20191;-57
2022/10/21 03:40:00;;;;;;;13.43;10.60;;;15.10;99.90;;;;;;5010184;28;20445;-56
2022/10/21 03:42:27;;;;;;;14.45;10.73;;;15.20;99.90;;;;;;5009074;28;20190;-56
2022/10/21 03:44:53;;;;;;;11.55;10.32;;;15.40;99.90;;;;;;5010899;28;20215;-56
2022/10/21 03:47:18;;;;;;;13.90;10.00;;;15.30;99.90;;;;;;5008568;28;20190;-56
2022/10/21 03:49:44;;;;;;;11.50;9.60;;;15.40;99.90;;;;;;5010447;28;20182;-56
2022/10/21 03:52:10;;;;;;;13.83;10.27;;;15.60;99.90;;;;;;5008034;28;20207;-56
2022/10/21 03:54:35;;;;;;;14.13;10.10;;;15.50;99.90;;;;;;5010966;28;20219;-56
2022/10/21 03:57:01;;;;;;;14.27;9.13;;;15.30;99.90;;;;;;5006266;28;20245;-56
2022/10/21 03:59:27;;;;;;;13.73;10.43;;;15.80;99.90;;;;;;4991999;28;20222;-56
2022/10/21 04:01:53;;;;;;;11.93;8.83;;;15.80;99.90;;;;;;5010528;28;20465;-56
2022/10/21 04:04:18;;;;;;;12.80;10.70;;;15.60;99.90;;;;;;5011251;28;20210;-56
2022/10/21 04:06:44;;;;;;;16.23;10.10;;;15.80;99.90;;;;;;5008371;28;20445;-55
2022/10/21 04:09:10;;;;;;;10.07;8.87;;;15.70;99.90;;;;;;4999351;28;20190;-55
2022/10/21 04:11:36;;;;;;;15.03;9.97;;;15.80;99.90;;;;;;5008755;28;20250;-56
2022/10/21 04:14:02;;;;;;;16.30;9.07;;;15.60;99.90;;;;;;5006901;28;20203;-55
2022/10/21 04:16:28;;;;;;;10.38;9.27;;;15.70;99.90;;;;;;5006756;28;20189;-56
2022/10/21 04:18:54;;;;;;;11.82;10.63;;;15.80;99.90;;;;;;5005965;28;20214;-56
2022/10/21 04:21:21;;;;;;;12.83;10.50;;;15.50;99.90;;;;;;5006776;28;20552;-56
2022/10/21 04:23:47;;;;;;;13.05;11.02;;;15.40;99.90;;;;;;5001237;28;20258;-56
2022/10/21 04:26:12;;;;;;;12.00;10.13;;;15.50;99.90;;;;;;5006664;28;20196;-56
2022/10/21 04:28:38;;;;;;;12.03;9.70;;;15.90;99.90;;;;;;5005981;28;20194;-56
2022/10/21 04:31:05;;;;;;;10.77;9.67;;;15.80;99.90;;;;;;5005769;28;20297;-56
2022/10/21 04:33:30;;;;;;;11.18;9.77;;;15.80;99.90;;;;;;5002295;28;20853;-57
2022/10/21 04:35:57;;;;;;;12.87;10.00;;;15.80;99.90;;;;;;5000982;28;20198;-56
2022/10/21 04:38:24;;;;;;;14.07;9.35;;;15.70;99.90;;;;;;5009730;28;20209;-56
2022/10/21 04:41:00;;;;;;;11.80;9.73;;;15.50;99.90;;;;;;5009499;28;20206;-56
2022/10/21 04:43:27;;;;;;;10.52;9.55;;;15.70;99.90;;;;;;5006347;28;20221;-56
2022/10/21 04:45:53;;;;;;;14.23;9.30;;;15.70;99.90;;;;;;5010572;28;20245;-56
2022/10/21 04:48:19;;;;;;;10.15;8.05;;;15.90;99.90;;;;;;5009665;28;20191;-56
2022/10/21 04:50:51;;;;;;;10.43;9.32;;;16.20;99.90;;;;;;5008268;28;20210;-56
2022/10/21 04:53:17;;;;;;;10.63;9.15;;;15.80;99.90;;;;;;5006472;28;20206;-56
2022/10/21 04:55:44;;;;;;;10.97;9.67;;;15.90;99.90;;;;;;5008224;28;20187;-56
2022/10/21 04:58:10;;;;;;;10.98;9.57;;;15.80;99.90;;;;;;5009226;28;20434;-56
2022/10/21 05:00:36;;;;;;;10.98;8.70;;;15.80;99.90;;;;;;5014054;28;20603;-56
2022/10/21 05:03:03;;;;;;;13.13;7.40;;;15.90;99.90;;;;;;5012709;28;20225;-56
2022/10/21 05:05:28;;;;;;;9.88;8.07;;;16.00;99.90;;;;;;5021479;28;20237;-56
2022/10/21 05:07:54;;;;;;;11.83;7.90;;;16.20;99.90;;;;;;5014251;28;20191;-55
2022/10/21 05:10:21;;;;;;;11.63;7.47;;;16.00;99.90;;;;;;5013543;28;20258;-56
2022/10/21 05:12:46;;;;;;;10.35;7.50;;;16.10;99.90;;;;;;5009279;28;20206;-56
2022/10/21 05:15:13;;;;;;;11.33;8.13;;;16.00;99.90;;;;;;5002090;28;21774;-56
2022/10/21 05:17:39;;;;;;;9.90;7.78;;;16.00;99.90;;;;;;5013797;28;20658;-55
2022/10/21 05:20:06;;;;;;;10.33;7.73;;;16.10;99.90;;;;;;5012011;28;20274;-55
2022/10/21 05:22:32;;;;;;;10.32;8.57;;;16.30;99.90;;;;;;5008671;28;20194;-55
2022/10/21 05:24:58;;;;;;;9.70;7.50;;;16.40;99.90;;;;;;5015312;28;20213;-55
2022/10/21 05:27:23;;;;;;;13.23;7.40;;;16.30;99.90;;;;;;5003791;28;21242;-56
2022/10/21 05:29:49;;;;;;;11.00;7.70;;;16.30;99.90;;;;;;5009991;28;20432;-56
2022/10/21 05:32:17;;;;;;;10.20;7.30;;;16.20;99.90;;;;;;5005488;28;20571;-55
2022/10/21 05:34:45;;;;;;;9.82;7.70;;;16.30;99.90;;;;;;4987449;28;20231;-55
2022/10/21 05:37:10;;;;;;;7.00;5.05;;;16.20;99.90;;;;;;5010993;28;20183;-55
2022/10/21 05:39:36;;;;;;;8.60;4.93;;;16.50;99.90;;;;;;5008622;28;20198;-55
2022/10/21 05:42:02;;;;;;;9.90;4.90;;;16.50;99.90;;;;;;5009159;28;20671;-55
2022/10/21 05:44:27;;;;;;;11.23;6.40;;;16.40;99.90;;;;;;5007050;28;20227;-56
2022/10/21 05:46:53;;;;;;;11.10;5.83;;;16.30;99.90;;;;;;5012378;28;20818;-56
2022/10/21 05:49:19;;;;;;;8.07;5.03;;;16.40;99.90;;;;;;5011925;28;20178;-55
2022/10/21 05:51:45;;;;;;;7.17;4.53;;;16.70;99.90;;;;;;5013121;28;20621;-55
2022/10/21 05:54:11;;;;;;;7.85;4.43;;;16.60;99.90;;;;;;5007091;28;20203;-55
2022/10/21 05:56:36;;;;;;;12.77;5.10;;;16.70;99.90;;;;;;4994517;28;20183;-55
2022/10/21 05:59:02;;;;;;;8.33;4.77;;;16.80;99.90;;;;;;5007952;28;20269;-55
2022/10/21 06:01:28;;;;;;;8.80;5.00;;;16.60;99.90;;;;;;5011270;28;20179;-56
2022/10/21 06:03:54;;;;;;;11.43;4.57;;;16.80;99.90;;;;;;5012382;28;20210;-55
2022/10/21 06:06:20;;;;;;;7.35;4.53;;;16.80;99.90;;;;;;5010215;28;20188;-55
2022/10/21 06:08:46;;;;;;;7.13;4.27;;;16.60;99.90;;;;;;5011324;28;20549;-55
2022/10/21 06:11:15;;;;;;;9.15;4.47;;;16.90;99.90;;;;;;5017996;28;20711;-56
2022/10/21 06:13:42;;;;;;;5.57;4.00;;;17.00;99.90;;;;;;5005987;28;20214;-55
2022/10/21 06:16:10;;;;;;;7.53;3.95;;;16.90;99.90;;;;;;5011357;28;20596;-55
2022/10/21 06:18:36;;;;;;;8.80;4.03;;;17.00;99.90;;;;;;5000893;28;20197;-55
2022/10/21 06:21:02;;;;;;;9.07;4.57;;;17.20;99.90;;;;;;5010412;28;20179;-56
2022/10/21 06:23:28;;;;;;;9.02;4.05;;;16.80;99.90;;;;;;5011602;28;20185;-56
2022/10/21 06:26:12;;;;;;;8.43;4.13;;;17.00;99.90;;;;;;5012635;28;20254;-56
2022/10/21 06:28:40;;;;;;;6.82;4.45;;;17.10;99.90;;;;;;4997287;28;20563;-56
2022/10/21 06:31:10;;;;;;;10.13;4.82;;;16.90;99.90;;;;;;5003371;28;20214;-56
2022/10/21 06:33:35;;;;;;;7.63;4.97;;;16.90;99.90;;;;;;5007752;28;20294;-55
2022/10/21 06:36:01;;;;;;;10.20;4.23;;;17.10;99.90;;;;;;5008047;28;20304;-56
2022/10/21 06:38:27;;;;;;;11.13;4.93;;;17.10;99.90;;;;;;5009286;28;20187;-55
2022/10/21 06:41:02;;;;;;;10.68;4.78;;;16.70;99.90;;;;;;5008908;28;20183;-56
2022/10/21 06:43:28;;;;;;;7.80;5.30;;;16.60;99.90;;;;;;5009946;28;20543;-56
2022/10/21 06:46:00;;;;;;;11.18;5.22;;;16.90;99.90;;;;;;5011804;28;20213;-56
2022/10/21 06:48:25;;;;;;;11.48;5.35;;;17.00;99.90;;;;;;5016947;28;20186;-55
2022/10/21 06:50:57;;;;;;;9.00;6.03;;;17.10;99.90;;;;;;5012643;28;20210;-56
2022/10/21 06:53:23;;;;;;;7.50;5.15;;;16.80;99.90;;;;;;5011081;28;20249;-56
2022/10/21 06:55:48;;;;;;;12.20;6.03;;;16.60;99.90;;;;;;4995532;28;20179;-56
2022/10/21 06:58:14;;;;;;;10.33;5.93;;;16.80;99.90;;;;;;5010119;28;20262;-55
2022/10/21 07:00:39;;;;;;;10.80;5.73;;;16.70;99.90;;;;;;5014228;28;20189;-55
2022/10/21 07:03:05;;;;;;;8.93;5.50;;;17.00;99.90;;;;;;5015087;28;20210;-55
2022/10/21 07:05:31;;;;;;;11.60;6.77;;;16.70;99.90;;;;;;5004166;28;20675;-54
2022/10/21 07:07:56;;;;;;;14.00;5.50;;;16.80;99.90;;;;;;5011576;28;20249;-54
2022/10/21 07:10:22;;;;;;;8.20;5.07;;;16.80;99.90;;;;;;5007522;28;20214;-55
2022/10/21 07:12:48;;;;;;;8.57;4.70;;;16.80;99.90;;;;;;5009130;28;20184;-54
2022/10/21 07:15:14;;;;;;;9.43;4.40;;;16.80;99.90;;;;;;5002035;28;20223;-55
2022/10/21 07:17:41;;;;;;;8.40;4.90;;;16.70;99.90;;;;;;5010666;28;20441;-55
2022/10/21 07:20:07;;;;;;;8.52;5.43;;;16.70;99.90;;;;;;5010736;28;20206;-55
2022/10/21 07:22:34;;;;;;;11.07;5.55;;;16.80;99.90;;;;;;5005658;28;20355;-55
2022/10/21 07:25:00;;;;;;;7.93;5.05;;;16.50;99.90;;;;;;5010480;28;20241;-55
2022/10/21 07:27:25;;;;;;;6.60;4.30;;;17.00;99.90;;;;;;5002893;28;20682;-55
2022/10/21 07:29:51;;;;;;;10.33;4.93;;;16.90;99.90;;;;;;5009481;28;20208;-55
2022/10/21 07:32:16;;;;;;;10.67;4.60;;;16.70;99.90;;;;;;5010763;28;20626;-55
2022/10/21 07:34:43;;;;;;;7.20;4.17;;;16.90;99.90;;;;;;5008834;28;20210;-55
2022/10/21 07:37:08;;;;;;;9.88;5.10;;;17.00;99.90;;;;;;5008876;28;20179;-55
2022/10/21 07:39:34;;;;;;;8.93;5.13;;;17.10;99.90;;;;;;5007823;28;20190;-55
2022/10/21 07:42:00;;;;;;;11.20;7.03;;;16.80;99.90;;;;;;5009511;28;20276;-55
2022/10/21 07:44:26;;;;;;;9.13;5.40;;;17.10;99.90;;;;;;5009568;28;20219;-55
2022/10/21 07:46:53;;;;;;;7.07;4.43;;;16.70;99.90;;;;;;5009951;28;20430;-55
2022/10/21 07:49:20;;;;;;;10.52;4.82;;;17.00;99.90;;;;;;5009882;28;20193;-56
2022/10/21 07:51:48;;;;;;;11.50;4.45;;;17.00;99.90;;;;;;5009673;28;20222;-56
2022/10/21 07:54:16;;;;;;;7.13;4.18;;;17.00;99.90;;;;;;5004442;28;20248;-55
2022/10/21 07:56:46;;;;;;;7.80;5.20;;;17.10;99.90;;;;;;5009828;28;20695;-55
2022/10/21 07:59:13;;;;;;;8.10;4.10;;;17.30;99.90;;;;;;5009651;28;20198;-55
2022/10/21 08:01:42;;;;;;;7.15;4.40;;;17.20;99.90;;;;;;5005498;28;20192;-55
2022/10/21 08:04:09;;;;;;;8.40;4.38;;;17.00;99.90;;;;;;5009695;28;20233;-55
2022/10/21 08:06:35;;;;;;;6.32;4.22;;;17.20;99.90;;;;;;5004993;28;20199;-55
2022/10/21 08:09:02;;;;;;;10.30;4.40;;;17.00;99.90;;;;;;5010360;28;20633;-55
2022/10/21 08:11:30;;;;;;;10.27;5.40;;;17.10;99.90;;;;;;5009454;28;20218;-54
2022/10/21 08:13:56;;;;;;;5.68;3.90;;;17.10;99.90;;;;;;5006564;28;20237;-56
2022/10/21 08:16:23;;;;;;;7.60;4.30;;;16.90;99.90;;;;;;5009644;28;20186;-55
2022/10/21 08:18:49;;;;;;;7.65;5.15;;;17.30;99.90;;;;;;5009487;28;20250;-55
2022/10/21 08:21:15;;;;;;;8.32;5.70;;;17.00;99.90;;;;;;5002742;28;20315;-55
2022/10/21 08:23:40;;;;;;;6.70;5.37;;;16.90;99.90;;;;;;5009829;28;20214;-55
2022/10/21 08:26:26;;;;;;;7.10;5.10;;;17.30;99.90;;;;;;5009738;28;20433;-55
2022/10/21 08:28:52;;;;;;;7.70;5.30;;;17.00;99.90;;;;;;5006157;28;20552;-56
2022/10/21 08:31:20;;;;;;;14.63;5.70;;;16.90;99.90;;;;;;5001200;28;20237;-55
2022/10/21 08:33:47;;;;;;;8.52;6.25;;;17.00;99.90;;;;;;5013884;28;20578;-55
2022/10/21 08:36:18;;;;;;;8.02;5.53;;;17.20;99.90;;;;;;5013690;28;20174;-55
2022/10/21 08:38:44;;;;;;;7.03;4.88;;;17.00;99.90;;;;;;5011032;28;20193;-55
2022/10/21 08:41:30;;;;;;;8.20;5.50;;;17.00;99.90;;;;;;5013460;28;20611;-56
2022/10/21 08:44:17;;;;;;;10.32;5.78;;;17.10;99.90;;;;;;4989710;28;20631;-54
2022/10/21 08:47:08;;;;;;;7.47;4.88;;;16.90;99.90;;;;;;5018355;28;20182;-55
2022/10/21 08:49:51;;;;;;;10.23;5.53;;;16.90;99.90;;;;;;5009256;28;20220;-55
2022/10/21 08:52:40;;;;;;;8.82;5.90;;;17.00;99.90;;;;;;5014976;28;20563;-55
2022/10/21 08:55:31;;;;;;;16.98;9.95;;;17.00;99.90;;;;;;5011524;28;20209;-56
2022/10/21 08:58:21;;;;;;;9.45;5.93;;;16.90;99.90;;;;;;5013255;28;20190;-55
2022/10/21 09:01:00;;;;;;;9.93;6.93;;;17.10;99.90;;;;;;5014998;28;20179;-56
2022/10/21 09:03:57;;;;;;;9.43;6.10;;;17.00;99.90;;;;;;5016217;28;20285;-55
2022/10/21 09:06:46;;;;;;;9.90;5.15;;;17.10;99.90;;;;;;5003291;28;20203;-55
2022/10/21 09:09:39;;;;;;;9.88;5.63;;;17.30;99.90;;;;;;5009081;28;20190;-56
2022/10/21 09:12:14;;;;;;;13.13;6.53;;;17.80;99.90;;;;;;5021325;28;20257;-55
2022/10/21 09:15:10;;;;;;;14.23;7.05;;;17.10;99.90;;;;;;5011336;28;20226;-55
2022/10/21 09:18:05;;;;;;;11.10;7.00;;;17.30;99.90;;;;;;5013039;28;20660;-55
2022/10/21 09:20:30;;;;;;;8.10;5.55;;;17.00;99.90;;;;;;5008805;28;20179;-56
2022/10/21 09:23:11;;;;;;;8.53;5.90;;;17.20;99.90;;;;;;5002588;28;20187;-55
2022/10/21 09:25:48;;;;;;;10.15;5.78;;;17.50;99.90;;;;;;5014449;28;20598;-55
2022/10/21 09:28:34;;;;;;;11.20;5.00;;;17.20;99.90;;;;;;5009667;28;20197;-55
2022/10/21 09:31:02;;;;;;;4.78;4.10;;;17.50;99.90;;;;;;5012480;28;20770;-56
2022/10/21 09:33:50;;;;;;;8.02;4.18;;;17.30;99.90;;;;;;5013367;28;20227;-55
2022/10/21 09:36:48;;;;;;;10.02;4.93;;;17.70;99.90;;;;;;5012230;28;20193;-56
2022/10/21 09:39:31;;;;;;;10.23;4.95;;;17.80;99.90;;;;;;5010691;28;20682;-56
2022/10/21 09:41:58;;;;;;;10.82;5.00;;;17.90;99.90;;;;;;5011804;28;20179;-55
2022/10/21 09:44:24;;;;;;;9.18;5.40;;;18.00;99.90;;;;;;5012144;28;20560;-55
2022/10/21 09:46:52;;;;;;;10.68;4.82;;;18.20;99.90;;;;;;5010763;28;20250;-55
2022/10/21 09:49:31;;;;;;;6.85;4.93;;;18.30;99.90;;;;;;5011978;28;20186;-56
2022/10/21 09:52:03;;;;;;;7.70;4.43;;;18.40;99.90;;;;;;5010915;28;20217;-55
2022/10/21 09:54:36;;;;;;;7.35;3.60;;;18.20;99.90;;;;;;5016829;28;20214;-55
2022/10/21 09:57:13;;;;;;;6.90;3.25;;;18.40;99.90;;;;;;4997812;28;20253;-56
2022/10/21 09:59:52;;;;;;;5.40;2.50;;;18.10;99.90;;;;;;5009174;28;20525;-56
2022/10/21 10:02:26;;;;;;;3.53;2.35;;;18.10;99.90;;;;;;5012239;28;20182;-56
2022/10/21 10:04:52;;;;;;;4.45;2.63;;;18.20;99.90;;;;;;5011307;28;20247;-56
2022/10/21 10:07:27;;;;;;;3.20;2.50;;;18.20;99.90;;;;;;5011189;28;20203;-56
2022/10/21 10:09:53;;;;;;;6.70;3.20;;;18.30;99.90;;;;;;5011915;28;20255;-56
2022/10/21 10:12:42;;;;;;;3.27;2.50;;;18.30;99.90;;;;;;5009270;28;20297;-56
2022/10/21 10:15:32;;;;;;;6.20;3.05;;;18.70;99.90;;;;;;5009780;28;20199;-55
2022/10/21 10:17:59;;;;;;;7.57;2.33;;;18.50;99.90;;;;;;5011333;28;20205;-55
2022/10/21 10:20:24;;;;;;;9.15;2.90;;;18.90;99.90;;;;;;5013285;28;20229;-55
2022/10/21 10:22:57;;;;;;;3.07;2.30;;;18.60;99.90;;;;;;4990234;28;20187;-55
2022/10/21 10:25:27;;;;;;;3.45;2.40;;;18.60;99.90;;;;;;5012272;28;20285;-55
2022/10/21 10:27:54;;;;;;;4.80;2.80;;;18.60;99.90;;;;;;5006336;28;20187;-56
2022/10/21 10:30:22;;;;;;;6.47;2.83;;;18.60;99.90;;;;;;5011655;28;20230;-55
2022/10/21 10:32:53;;;;;;;6.10;2.42;;;18.70;99.90;;;;;;5015557;28;20713;-55
2022/10/21 10:35:33;;;;;;;6.18;2.63;;;18.70;99.90;;;;;;5011772;28;20233;-55
2022/10/21 10:38:03;;;;;;;10.85;3.25;;;18.70;99.90;;;;;;5005568;28;20278;-56
2022/10/21 10:40:38;;;;;;;6.05;2.80;;;18.80;99.90;;;;;;5011294;28;20274;-55
2022/10/21 10:43:29;;;;;;;5.03;2.70;;;18.80;99.90;;;;;;5009505;28;20182;-55
2022/10/21 10:45:56;;;;;;;3.90;2.20;;;18.70;99.90;;;;;;5011393;28;20648;-56
2022/10/21 10:48:40;;;;;;;7.10;3.40;;;18.70;99.90;;;;;;5011278;28;20269;-56
2022/10/21 10:51:26;;;;;;;5.60;3.40;;;18.70;99.90;;;;;;4997548;28;20194;-55
2022/10/21 10:54:05;;;;;;;7.00;2.70;;;18.70;99.90;;;;;;5009850;28;20699;-55
2022/10/21 10:56:45;;;;;;;3.88;2.63;;;18.60;99.90;;;;;;5006991;28;20223;-56
2022/10/21 10:59:27;;;;;;;4.10;3.63;;;18.70;99.90;;;;;;5007169;28;20179;-56
2022/10/21 11:02:14;;;;;;;6.38;4.88;;;18.50;99.90;;;;;;5010786;28;20193;-55
2022/10/21 11:04:45;;;;;;;4.85;2.90;;;18.70;99.90;;;;;;5007989;28;20207;-55
2022/10/21 11:07:32;;;;;;;4.72;2.63;;;18.90;99.90;;;;;;5000754;28;20189;-55
2022/10/21 11:10:04;;;;;;;7.82;4.07;;;19.00;99.90;;;;;;5011203;28;20544;-56
2022/10/21 11:12:30;;;;;;;3.83;2.92;;;19.20;99.90;;;;;;5005789;28;20192;-55
2022/10/21 11:14:58;;;;;;;4.63;2.70;;;19.20;99.90;;;;;;5011148;28;20249;-55
2022/10/21 11:17:40;;;;;;;3.97;2.55;;;19.20;99.90;;;;;;5010210;28;20187;-55
2022/10/21 11:20:22;;;;;;;3.88;2.80;;;19.20;99.90;;;;;;5010010;28;20183;-56
2022/10/21 11:23:21;;;;;;;2.60;2.40;;;19.70;99.90;;;;;;5010637;28;20190;-56
2022/10/21 11:25:57;;;;;;;3.35;2.33;;;19.40;99.90;;;;;;5008849;28;20186;-56
2022/10/21 11:28:48;;;;;;;4.03;2.35;;;19.50;99.90;;;;;;5003297;28;20198;-55
2022/10/21 11:32:03;;;;;;;4.88;3.25;;;19.60;99.90;;;;;;5010132;28;20306;-56
2022/10/21 11:34:43;;;;;;;4.30;2.28;;;19.60;99.90;;;;;;4982964;28;20203;-56
2022/10/21 11:37:19;;;;;;;2.78;1.90;;;19.50;99.90;;;;;;5007459;28;20293;-56
2022/10/21 11:39:51;;;;;;;4.53;2.10;;;19.40;99.90;;;;;;5009586;28;20276;-56
2022/10/21 11:42:17;;;;;;;4.85;4.32;;;19.60;99.90;;;;;;5006286;28;20278;-55
2022/10/21 11:45:00;;;;;;;4.37;1.93;;;19.70;99.90;;;;;;5011063;28;20282;-55
2022/10/21 11:48:15;;;;;;;3.15;2.00;;;19.80;99.90;;;;;;5010202;28;20195;-56
2022/10/21 11:50:53;;;;;;;3.90;1.90;;;20.00;99.90;;;;;;4949329;28;20216;-56
2022/10/21 11:53:57;;;;;;;5.32;1.58;;;20.20;99.90;;;;;;4996919;28;20256;-55
2022/10/21 11:56:44;;;;;;;2.30;1.70;;;20.20;99.90;;;;;;5009055;28;20204;-55
2022/10/21 11:59:28;;;;;;;3.47;1.85;;;20.30;99.90;;;;;;5006478;28;20178;-56
2022/10/21 12:02:19;;;;;;;2.55;1.70;;;20.20;99.90;;;;;;5010001;28;20186;-56
2022/10/21 12:05:13;;;;;;;3.20;1.33;;;20.20;99.90;;;;;;5007467;28;20293;-56
2022/10/21 12:07:52;;;;;;;2.22;1.30;;;20.20;99.90;;;;;;4991211;28;20183;-56
2022/10/21 12:10:54;;;;;;;2.85;2.00;;;20.00;99.90;;;;;;5010565;28;20202;-56
2022/10/21 12:13:35;;;;;;;4.90;2.30;;;20.20;99.90;;;;;;5001447;28;20186;-56
2022/10/21 12:16:05;;;;;;;3.00;1.73;;;20.10;99.90;;;;;;5009982;28;20187;-56
2022/10/21 12:18:35;;;;;;;4.05;1.83;;;20.00;99.90;;;;;;5009329;28;20236;-56
2022/10/21 12:21:01;;;;;;;4.18;1.70;;;20.00;99.90;;;;;;5010277;28;20205;-56
2022/10/21 12:23:30;;;;;;;1.90;1.50;;;20.00;99.90;;;;;;4998139;28;20182;-56
2022/10/21 12:25:59;;;;;;;5.20;1.65;;;20.20;99.90;;;;;;5009732;28;20186;-56
2022/10/21 12:28:28;;;;;;;2.55;1.30;;;20.00;99.90;;;;;;5006600;28;20239;-56
2022/10/21 12:31:10;;;;;;;4.65;1.70;;;19.90;99.90;;;;;;5000065;28;20245;-56
2022/10/21 12:33:46;;;;;;;2.03;1.20;;;19.90;99.90;;;;;;5008380;28;20290;-56
2022/10/21 12:36:23;;;;;;;1.30;0.90;;;19.90;99.90;;;;;;5007985;28;20666;-56
2022/10/21 12:38:48;;;;;;;4.90;1.30;;;19.90;99.90;;;;;;5008057;28;20516;-56
2022/10/21 12:41:23;;;;;;;2.40;1.13;;;20.00;99.90;;;;;;5010643;28;20182;-56
2022/10/21 12:44:01;;;;;;;2.17;1.27;;;19.80;99.90;;;;;;5004109;28;20272;-56
2022/10/21 12:46:38;;;;;;;1.85;1.20;;;20.00;99.90;;;;;;5009430;28;20789;-56
2022/10/21 12:49:31;;;;;;;1.58;1.10;;;19.80;99.90;;;;;;5009300;28;20179;-56
2022/10/21 12:52:08;;;;;;;1.20;1.08;;;19.70;99.90;;;;;;5002294;28;20211;-54
2022/10/21 12:54:46;;;;;;;3.00;0.90;;;19.70;99.90;;;;;;5008502;28;20737;-55
2022/10/21 12:57:27;;;;;;;1.00;0.90;;;19.60;99.90;;;;;;5001940;28;20639;-54
2022/10/21 13:00:15;;;;;;;1.25;0.95;;;19.50;99.90;;;;;;5017185;28;20171;-56
2022/10/21 13:03:01;;;;;;;1.30;1.00;;;19.40;99.90;;;;;;4994817;28;20193;-55